Bethlehem Center, New York
Current Conditions -  °F | °C
As of 10:51 PM on Sunday 21 Dec 2014 (Local Time) from KALB Reporting Station
Overcast Overcast  
Wind Chill: 30°   Ceiling: 4200
Heat Index: 30°   Visibility: 10mi
Dew Point: 23°   Wind: 3mph
Humidity: 75%   Direction: 350°N
Pressure: 30.38"   Gusts: NA
Location:  42.5925°N, 73.7845°W
Report Text: KALB 220351Z 35003KT 10SM SCT030 OVC042 M01/M05 A3038 RMK AO2 SLP289 T10111050
Loading
Personal Weather Stations






























Interactive Weather Map New forecast layout! Learn more

10-Day Weather Forecast

Advertisements
Track Severe Weather on mobile